sensor_id;sensor_type;location;lat;lon;timestamp;temperature;humidity
69082;DHT22;69029;51.986;5.760;2023-05-27T00:01:26;11.20;67.80
69082;DHT22;69029;51.986;5.760;2023-05-27T00:03:52;11.20;67.20
69082;DHT22;69029;51.986;5.760;2023-05-27T00:06:17;11.20;67.20
69082;DHT22;69029;51.986;5.760;2023-05-27T00:08:43;11.10;68.00
69082;DHT22;69029;51.986;5.760;2023-05-27T00:11:08;11.20;67.70
69082;DHT22;69029;51.986;5.760;2023-05-27T00:13:34;11.10;68.40
69082;DHT22;69029;51.986;5.760;2023-05-27T00:16:00;11.10;69.10
69082;DHT22;69029;51.986;5.760;2023-05-27T00:18:25;11.10;70.00
69082;DHT22;69029;51.986;5.760;2023-05-27T00:20:51;11.20;67.90
69082;DHT22;69029;51.986;5.760;2023-05-27T00:23:17;11.10;71.90
69082;DHT22;69029;51.986;5.760;2023-05-27T00:25:42;11.00;71.00
69082;DHT22;69029;51.986;5.760;2023-05-27T00:28:08;11.00;65.90
69082;DHT22;69029;51.986;5.760;2023-05-27T00:30:34;11.00;71.20
69082;DHT22;69029;51.986;5.760;2023-05-27T00:33:00;10.90;69.20
69082;DHT22;69029;51.986;5.760;2023-05-27T00:35:25;10.90;70.90
69082;DHT22;69029;51.986;5.760;2023-05-27T00:37:51;10.90;69.40
69082;DHT22;69029;51.986;5.760;2023-05-27T00:40:20;10.80;73.30
69082;DHT22;69029;51.986;5.760;2023-05-27T00:42:46;10.70;68.40
69082;DHT22;69029;51.986;5.760;2023-05-27T00:45:12;10.70;72.00
69082;DHT22;69029;51.986;5.760;2023-05-27T00:47:37;10.80;71.60
69082;DHT22;69029;51.986;5.760;2023-05-27T00:50:04;10.70;71.10
69082;DHT22;69029;51.986;5.760;2023-05-27T00:52:30;10.70;73.70
69082;DHT22;69029;51.986;5.760;2023-05-27T00:54:56;10.60;73.50
69082;DHT22;69029;51.986;5.760;2023-05-27T00:57:22;10.50;74.20
69082;DHT22;69029;51.986;5.760;2023-05-27T00:59:47;10.50;72.10
69082;DHT22;69029;51.986;5.760;2023-05-27T01:02:14;10.50;71.00
69082;DHT22;69029;51.986;5.760;2023-05-27T01:04:40;10.40;73.90
69082;DHT22;69029;51.986;5.760;2023-05-27T01:09:57;10.40;75.30
69082;DHT22;69029;51.986;5.760;2023-05-27T01:14:57;10.30;78.80
69082;DHT22;69029;51.986;5.760;2023-05-27T01:17:24;10.20;77.10
69082;DHT22;69029;51.986;5.760;2023-05-27T01:19:52;10.20;76.10
69082;DHT22;69029;51.986;5.760;2023-05-27T01:22:19;10.20;71.60
69082;DHT22;69029;51.986;5.760;2023-05-27T01:24:46;10.20;79.40
69082;DHT22;69029;51.986;5.760;2023-05-27T01:27:12;10.10;79.40
69082;DHT22;69029;51.986;5.760;2023-05-27T01:29:39;10.20;75.30
69082;DHT22;69029;51.986;5.760;2023-05-27T01:37:54;10.00;82.10
69082;DHT22;69029;51.986;5.760;2023-05-27T01:40:21;9.90;76.40
69082;DHT22;69029;51.986;5.760;2023-05-27T01:42:47;9.90;80.90
69082;DHT22;69029;51.986;5.760;2023-05-27T01:45:14;9.90;80.30
69082;DHT22;69029;51.986;5.760;2023-05-27T01:47:42;9.80;78.50
69082;DHT22;69029;51.986;5.760;2023-05-27T01:50:08;9.80;77.00
69082;DHT22;69029;51.986;5.760;2023-05-27T01:52:33;9.80;83.70
69082;DHT22;69029;51.986;5.760;2023-05-27T01:54:59;9.70;84.80
69082;DHT22;69029;51.986;5.760;2023-05-27T01:57:25;9.80;72.10
69082;DHT22;69029;51.986;5.760;2023-05-27T01:59:51;9.70;80.10
69082;DHT22;69029;51.986;5.760;2023-05-27T02:02:17;9.80;80.70
69082;DHT22;69029;51.986;5.760;2023-05-27T02:04:42;9.70;80.20
69082;DHT22;69029;51.986;5.760;2023-05-27T02:07:08;9.70;78.10
69082;DHT22;69029;51.986;5.760;2023-05-27T02:09:33;9.60;79.90
69082;DHT22;69029;51.986;5.760;2023-05-27T02:11:59;9.60;84.30
69082;DHT22;69029;51.986;5.760;2023-05-27T02:14:26;9.60;84.50
69082;DHT22;69029;51.986;5.760;2023-05-27T02:16:51;9.50;86.70
69082;DHT22;69029;51.986;5.760;2023-05-27T02:19:17;9.50;83.10
69082;DHT22;69029;51.986;5.760;2023-05-27T02:21:42;9.50;84.00
69082;DHT22;69029;51.986;5.760;2023-05-27T02:24:08;9.40;85.90
69082;DHT22;69029;51.986;5.760;2023-05-27T02:26:34;9.40;87.40
69082;DHT22;69029;51.986;5.760;2023-05-27T02:28:59;9.30;83.70
69082;DHT22;69029;51.986;5.760;2023-05-27T02:31:25;9.30;82.50
69082;DHT22;69029;51.986;5.760;2023-05-27T02:33:51;9.30;87.50
69082;DHT22;69029;51.986;5.760;2023-05-27T02:36:16;9.30;82.00
69082;DHT22;69029;51.986;5.760;2023-05-27T02:38:42;9.30;86.00
69082;DHT22;69029;51.986;5.760;2023-05-27T02:41:08;9.30;81.40
69082;DHT22;69029;51.986;5.760;2023-05-27T02:43:33;9.20;82.10
69082;DHT22;69029;51.986;5.760;2023-05-27T02:45:59;9.20;82.90
69082;DHT22;69029;51.986;5.760;2023-05-27T02:48:24;9.20;85.60
69082;DHT22;69029;51.986;5.760;2023-05-27T02:50:50;9.10;87.20
69082;DHT22;69029;51.986;5.760;2023-05-27T02:53:15;9.00;87.90
69082;DHT22;69029;51.986;5.760;2023-05-27T02:55:41;9.00;87.00
69082;DHT22;69029;51.986;5.760;2023-05-27T02:58:09;9.00;86.40
69082;DHT22;69029;51.986;5.760;2023-05-27T03:00:35;9.00;82.90
69082;DHT22;69029;51.986;5.760;2023-05-27T03:03:01;8.90;88.20
69082;DHT22;69029;51.986;5.760;2023-05-27T03:05:30;8.90;87.80
69082;DHT22;69029;51.986;5.760;2023-05-27T03:07:56;8.80;90.30
69082;DHT22;69029;51.986;5.760;2023-05-27T03:10:21;8.80;91.70
69082;DHT22;69029;51.986;5.760;2023-05-27T03:12:47;8.80;84.60
69082;DHT22;69029;51.986;5.760;2023-05-27T03:15:13;8.70;87.70
69082;DHT22;69029;51.986;5.760;2023-05-27T03:17:40;8.70;88.60
69082;DHT22;69029;51.986;5.760;2023-05-27T03:20:06;8.70;89.70
69082;DHT22;69029;51.986;5.760;2023-05-27T03:22:36;8.60;90.50
69082;DHT22;69029;51.986;5.760;2023-05-27T03:25:02;8.70;91.00
69082;DHT22;69029;51.986;5.760;2023-05-27T03:27:28;8.60;88.80
69082;DHT22;69029;51.986;5.760;2023-05-27T03:29:54;8.50;90.90
69082;DHT22;69029;51.986;5.760;2023-05-27T03:32:19;8.50;90.80
69082;DHT22;69029;51.986;5.760;2023-05-27T03:34:45;8.50;88.60
69082;DHT22;69029;51.986;5.760;2023-05-27T03:37:10;8.40;88.80
69082;DHT22;69029;51.986;5.760;2023-05-27T03:39:36;8.50;90.00
69082;DHT22;69029;51.986;5.760;2023-05-27T03:42:05;8.40;87.50
69082;DHT22;69029;51.986;5.760;2023-05-27T03:44:31;8.40;88.00
69082;DHT22;69029;51.986;5.760;2023-05-27T03:46:57;8.40;90.10
69082;DHT22;69029;51.986;5.760;2023-05-27T03:49:22;8.30;90.70
69082;DHT22;69029;51.986;5.760;2023-05-27T03:51:48;8.30;90.00
69082;DHT22;69029;51.986;5.760;2023-05-27T03:54:14;8.30;90.00
69082;DHT22;69029;51.986;5.760;2023-05-27T03:56:40;8.30;92.30
69082;DHT22;69029;51.986;5.760;2023-05-27T03:59:05;8.30;93.60
69082;DHT22;69029;51.986;5.760;2023-05-27T04:01:34;8.30;91.70
69082;DHT22;69029;51.986;5.760;2023-05-27T04:03:59;8.30;92.20
69082;DHT22;69029;51.986;5.760;2023-05-27T04:06:25;8.30;93.70
69082;DHT22;69029;51.986;5.760;2023-05-27T04:08:52;8.30;93.40
69082;DHT22;69029;51.986;5.760;2023-05-27T04:11:17;8.30;92.60
69082;DHT22;69029;51.986;5.760;2023-05-27T04:13:43;8.30;94.60
69082;DHT22;69029;51.986;5.760;2023-05-27T04:16:09;8.30;96.30
69082;DHT22;69029;51.986;5.760;2023-05-27T04:18:35;8.30;96.30
69082;DHT22;69029;51.986;5.760;2023-05-27T04:21:01;8.30;95.90
69082;DHT22;69029;51.986;5.760;2023-05-27T04:23:27;8.30;98.50
69082;DHT22;69029;51.986;5.760;2023-05-27T04:25:52;8.30;95.90
69082;DHT22;69029;51.986;5.760;2023-05-27T04:28:18;8.30;96.80
69082;DHT22;69029;51.986;5.760;2023-05-27T04:30:44;8.30;91.30
69082;DHT22;69029;51.986;5.760;2023-05-27T04:33:11;8.40;95.80
69082;DHT22;69029;51.986;5.760;2023-05-27T04:35:38;8.40;97.20
69082;DHT22;69029;51.986;5.760;2023-05-27T04:38:06;8.40;95.50
69082;DHT22;69029;51.986;5.760;2023-05-27T04:40:33;8.40;93.90
69082;DHT22;69029;51.986;5.760;2023-05-27T04:42:59;8.40;95.80
69082;DHT22;69029;51.986;5.760;2023-05-27T04:45:26;8.40;90.00
69082;DHT22;69029;51.986;5.760;2023-05-27T04:47:52;8.50;97.00
69082;DHT22;69029;51.986;5.760;2023-05-27T04:50:18;8.50;96.00
69082;DHT22;69029;51.986;5.760;2023-05-27T04:52:43;8.50;98.00
69082;DHT22;69029;51.986;5.760;2023-05-27T04:55:10;8.50;99.90
69082;DHT22;69029;51.986;5.760;2023-05-27T04:57:36;8.60;95.90
69082;DHT22;69029;51.986;5.760;2023-05-27T05:00:06;8.70;99.60
69082;DHT22;69029;51.986;5.760;2023-05-27T05:02:35;8.70;95.60
69082;DHT22;69029;51.986;5.760;2023-05-27T05:05:06;8.70;99.90
69082;DHT22;69029;51.986;5.760;2023-05-27T05:07:32;8.80;98.80
69082;DHT22;69029;51.986;5.760;2023-05-27T05:09:58;8.80;98.10
69082;DHT22;69029;51.986;5.760;2023-05-27T05:12:25;8.90;99.90
69082;DHT22;69029;51.986;5.760;2023-05-27T05:14:51;8.90;99.90
69082;DHT22;69029;51.986;5.760;2023-05-27T05:17:17;9.00;99.90
69082;DHT22;69029;51.986;5.760;2023-05-27T05:19:44;9.10;99.90
69082;DHT22;69029;51.986;5.760;2023-05-27T05:22:10;9.20;99.90
69082;DHT22;69029;51.986;5.760;2023-05-27T05:24:38;9.20;99.90
69082;DHT22;69029;51.986;5.760;2023-05-27T05:27:04;9.30;99.90
69082;DHT22;69029;51.986;5.760;2023-05-27T05:29:31;9.30;99.90
69082;DHT22;69029;51.986;5.760;2023-05-27T05:31:56;9.40;99.90
69082;DHT22;69029;51.986;5.760;2023-05-27T05:34:22;9.40;99.90
69082;DHT22;69029;51.986;5.760;2023-05-27T05:36:47;9.50;99.90
69082;DHT22;69029;51.986;5.760;2023-05-27T05:39:13;9.60;97.10
69082;DHT22;69029;51.986;5.760;2023-05-27T05:41:39;9.70;99.90
69082;DHT22;69029;51.986;5.760;2023-05-27T05:44:04;9.80;99.90
69082;DHT22;69029;51.986;5.760;2023-05-27T05:46:30;9.80;99.90
69082;DHT22;69029;51.986;5.760;2023-05-27T05:48:56;10.00;99.90
69082;DHT22;69029;51.986;5.760;2023-05-27T05:51:21;10.00;99.90
69082;DHT22;69029;51.986;5.760;2023-05-27T05:53:47;10.10;99.90
69082;DHT22;69029;51.986;5.760;2023-05-27T05:56:12;10.20;99.90
69082;DHT22;69029;51.986;5.760;2023-05-27T05:58:38;10.20;98.60
69082;DHT22;69029;51.986;5.760;2023-05-27T06:01:03;10.30;99.90
69082;DHT22;69029;51.986;5.760;2023-05-27T06:03:29;10.40;99.90
69082;DHT22;69029;51.986;5.760;2023-05-27T06:05:55;10.40;98.40
69082;DHT22;69029;51.986;5.760;2023-05-27T06:08:21;10.50;99.90
69082;DHT22;69029;51.986;5.760;2023-05-27T06:10:46;10.60;99.90
69082;DHT22;69029;51.986;5.760;2023-05-27T06:13:12;10.60;98.20
69082;DHT22;69029;51.986;5.760;2023-05-27T06:15:38;10.70;99.90
69082;DHT22;69029;51.986;5.760;2023-05-27T06:18:04;10.90;99.90
69082;DHT22;69029;51.986;5.760;2023-05-27T06:20:30;10.90;99.90
69082;DHT22;69029;51.986;5.760;2023-05-27T06:22:55;11.00;99.30
69082;DHT22;69029;51.986;5.760;2023-05-27T06:25:21;11.00;99.90
69082;DHT22;69029;51.986;5.760;2023-05-27T06:27:48;11.10;99.90
69082;DHT22;69029;51.986;5.760;2023-05-27T06:30:14;11.20;99.80
69082;DHT22;69029;51.986;5.760;2023-05-27T06:32:39;11.30;99.90
69082;DHT22;69029;51.986;5.760;2023-05-27T06:35:08;11.40;96.70
69082;DHT22;69029;51.986;5.760;2023-05-27T06:37:33;11.50;98.30
69082;DHT22;69029;51.986;5.760;2023-05-27T06:39:59;11.50;95.20
69082;DHT22;69029;51.986;5.760;2023-05-27T06:42:25;11.60;99.00
69082;DHT22;69029;51.986;5.760;2023-05-27T06:44:50;11.70;99.20
69082;DHT22;69029;51.986;5.760;2023-05-27T06:47:16;11.80;95.70
69082;DHT22;69029;51.986;5.760;2023-05-27T06:49:42;11.90;97.50
69082;DHT22;69029;51.986;5.760;2023-05-27T06:52:07;11.90;97.30
69082;DHT22;69029;51.986;5.760;2023-05-27T06:54:33;12.00;93.50
69082;DHT22;69029;51.986;5.760;2023-05-27T06:56:59;12.10;98.30
69082;DHT22;69029;51.986;5.760;2023-05-27T06:59:25;12.10;97.20
69082;DHT22;69029;51.986;5.760;2023-05-27T07:01:51;12.20;97.60
69082;DHT22;69029;51.986;5.760;2023-05-27T07:04:16;12.30;94.50
69082;DHT22;69029;51.986;5.760;2023-05-27T07:06:43;12.40;93.90
69082;DHT22;69029;51.986;5.760;2023-05-27T07:09:08;12.50;95.60
69082;DHT22;69029;51.986;5.760;2023-05-27T07:11:35;12.60;96.70
69082;DHT22;69029;51.986;5.760;2023-05-27T07:14:00;12.70;97.30
69082;DHT22;69029;51.986;5.760;2023-05-27T07:16:26;12.70;95.60
69082;DHT22;69029;51.986;5.760;2023-05-27T07:18:52;12.80;91.30
69082;DHT22;69029;51.986;5.760;2023-05-27T07:21:17;13.00;92.50
69082;DHT22;69029;51.986;5.760;2023-05-27T07:23:43;13.10;91.70
69082;DHT22;69029;51.986;5.760;2023-05-27T07:26:09;13.10;92.00
69082;DHT22;69029;51.986;5.760;2023-05-27T07:28:35;13.20;92.10
69082;DHT22;69029;51.986;5.760;2023-05-27T07:31:00;13.30;89.30
69082;DHT22;69029;51.986;5.760;2023-05-27T07:33:26;13.40;90.80
69082;DHT22;69029;51.986;5.760;2023-05-27T07:35:51;13.50;87.70
69082;DHT22;69029;51.986;5.760;2023-05-27T07:38:17;13.60;88.40
69082;DHT22;69029;51.986;5.760;2023-05-27T07:40:43;13.70;90.20
69082;DHT22;69029;51.986;5.760;2023-05-27T07:43:08;13.80;86.90
69082;DHT22;69029;51.986;5.760;2023-05-27T07:45:34;13.90;87.80
69082;DHT22;69029;51.986;5.760;2023-05-27T07:47:59;14.00;87.30
69082;DHT22;69029;51.986;5.760;2023-05-27T07:50:25;14.10;85.20
69082;DHT22;69029;51.986;5.760;2023-05-27T07:52:51;14.10;85.20
69082;DHT22;69029;51.986;5.760;2023-05-27T07:55:16;14.20;84.70
69082;DHT22;69029;51.986;5.760;2023-05-27T07:57:43;14.30;85.20
69082;DHT22;69029;51.986;5.760;2023-05-27T08:00:09;14.50;85.30
69082;DHT22;69029;51.986;5.760;2023-05-27T08:02:35;14.50;79.90
69082;DHT22;69029;51.986;5.760;2023-05-27T08:05:01;14.50;82.30
69082;DHT22;69029;51.986;5.760;2023-05-27T08:07:27;14.60;80.60
69082;DHT22;69029;51.986;5.760;2023-05-27T08:09:52;14.80;80.20
69082;DHT22;69029;51.986;5.760;2023-05-27T08:12:18;14.90;78.10
69082;DHT22;69029;51.986;5.760;2023-05-27T08:14:43;15.00;78.30
69082;DHT22;69029;51.986;5.760;2023-05-27T08:17:10;15.00;75.90
69082;DHT22;69029;51.986;5.760;2023-05-27T08:19:35;15.10;77.20
69082;DHT22;69029;51.986;5.760;2023-05-27T08:22:01;15.20;76.80
69082;DHT22;69029;51.986;5.760;2023-05-27T08:24:29;15.40;79.00
69082;DHT22;69029;51.986;5.760;2023-05-27T08:26:56;15.40;76.10
69082;DHT22;69029;51.986;5.760;2023-05-27T08:29:22;15.50;74.70
69082;DHT22;69029;51.986;5.760;2023-05-27T08:31:49;15.50;76.20
69082;DHT22;69029;51.986;5.760;2023-05-27T08:34:17;15.70;77.30
69082;DHT22;69029;51.986;5.760;2023-05-27T08:36:42;15.80;75.30
69082;DHT22;69029;51.986;5.760;2023-05-27T08:39:08;15.90;75.80
69082;DHT22;69029;51.986;5.760;2023-05-27T08:41:34;15.90;75.30
69082;DHT22;69029;51.986;5.760;2023-05-27T08:44:02;16.00;76.30
69082;DHT22;69029;51.986;5.760;2023-05-27T08:46:28;16.10;73.80
69082;DHT22;69029;51.986;5.760;2023-05-27T08:48:54;16.20;72.30
69082;DHT22;69029;51.986;5.760;2023-05-27T08:51:21;16.20;73.10
69082;DHT22;69029;51.986;5.760;2023-05-27T08:53:47;16.30;72.60
69082;DHT22;69029;51.986;5.760;2023-05-27T08:56:15;16.40;70.30
69082;DHT22;69029;51.986;5.760;2023-05-27T08:58:44;16.50;70.90
69082;DHT22;69029;51.986;5.760;2023-05-27T09:01:09;16.50;71.20
69082;DHT22;69029;51.986;5.760;2023-05-27T09:03:35;16.70;71.70
69082;DHT22;69029;51.986;5.760;2023-05-27T09:06:02;16.70;70.70
69082;DHT22;69029;51.986;5.760;2023-05-27T09:08:30;16.80;71.20
69082;DHT22;69029;51.986;5.760;2023-05-27T09:10:56;16.90;71.10
69082;DHT22;69029;51.986;5.760;2023-05-27T09:13:29;16.90;69.90
69082;DHT22;69029;51.986;5.760;2023-05-27T09:16:04;16.90;67.00
69082;DHT22;69029;51.986;5.760;2023-05-27T09:18:32;17.00;67.70
69082;DHT22;69029;51.986;5.760;2023-05-27T09:20:59;17.00;67.60
69082;DHT22;69029;51.986;5.760;2023-05-27T09:23:25;17.00;67.80
69082;DHT22;69029;51.986;5.760;2023-05-27T09:25:51;17.00;66.90
69082;DHT22;69029;51.986;5.760;2023-05-27T09:28:23;17.00;68.20
69082;DHT22;69029;51.986;5.760;2023-05-27T09:31:01;17.10;69.00
69082;DHT22;69029;51.986;5.760;2023-05-27T09:33:30;17.20;68.00
69082;DHT22;69029;51.986;5.760;2023-05-27T09:35:55;17.30;67.50
69082;DHT22;69029;51.986;5.760;2023-05-27T09:38:21;17.40;68.10
69082;DHT22;69029;51.986;5.760;2023-05-27T09:40:46;17.50;68.80
69082;DHT22;69029;51.986;5.760;2023-05-27T09:43:14;17.60;67.10
69082;DHT22;69029;51.986;5.760;2023-05-27T09:45:43;17.70;67.40
69082;DHT22;69029;51.986;5.760;2023-05-27T09:48:12;17.80;68.40
69082;DHT22;69029;51.986;5.760;2023-05-27T09:50:39;17.90;67.30
69082;DHT22;69029;51.986;5.760;2023-05-27T09:53:06;17.90;68.50
69082;DHT22;69029;51.986;5.760;2023-05-27T09:55:33;18.00;66.00
69082;DHT22;69029;51.986;5.760;2023-05-27T09:58:01;18.10;65.80
69082;DHT22;69029;51.986;5.760;2023-05-27T10:00:28;18.10;65.00
69082;DHT22;69029;51.986;5.760;2023-05-27T10:02:55;18.10;65.30
69082;DHT22;69029;51.986;5.760;2023-05-27T10:05:24;18.20;65.50
69082;DHT22;69029;51.986;5.760;2023-05-27T10:07:51;18.30;65.90
69082;DHT22;69029;51.986;5.760;2023-05-27T10:10:18;18.40;64.80
69082;DHT22;69029;51.986;5.760;2023-05-27T10:12:46;18.50;65.20
69082;DHT22;69029;51.986;5.760;2023-05-27T10:15:23;18.60;63.60
69082;DHT22;69029;51.986;5.760;2023-05-27T10:17:54;18.60;64.00
69082;DHT22;69029;51.986;5.760;2023-05-27T10:20:31;18.70;63.90
69082;DHT22;69029;51.986;5.760;2023-05-27T10:23:14;18.80;64.20
69082;DHT22;69029;51.986;5.760;2023-05-27T10:25:45;19.00;63.70
69082;DHT22;69029;51.986;5.760;2023-05-27T10:28:12;19.00;62.40
69082;DHT22;69029;51.986;5.760;2023-05-27T10:30:48;19.20;63.30
69082;DHT22;69029;51.986;5.760;2023-05-27T10:33:13;19.30;59.50
69082;DHT22;69029;51.986;5.760;2023-05-27T10:35:43;19.50;60.00
69082;DHT22;69029;51.986;5.760;2023-05-27T10:38:18;19.70;59.40
69082;DHT22;69029;51.986;5.760;2023-05-27T10:40:47;20.00;58.20
69082;DHT22;69029;51.986;5.760;2023-05-27T10:43:17;20.30;59.30
69082;DHT22;69029;51.986;5.760;2023-05-27T10:45:42;20.70;58.40
69082;DHT22;69029;51.986;5.760;2023-05-27T10:48:21;20.90;55.30
69082;DHT22;69029;51.986;5.760;2023-05-27T10:50:57;21.00;54.00
69082;DHT22;69029;51.986;5.760;2023-05-27T10:53:23;21.30;52.40
69082;DHT22;69029;51.986;5.760;2023-05-27T10:55:50;21.60;54.00
69082;DHT22;69029;51.986;5.760;2023-05-27T10:58:17;21.80;51.00
69082;DHT22;69029;51.986;5.760;2023-05-27T11:00:45;22.00;51.50
69082;DHT22;69029;51.986;5.760;2023-05-27T11:03:25;22.20;53.30
69082;DHT22;69029;51.986;5.760;2023-05-27T11:08:24;22.70;52.60
69082;DHT22;69029;51.986;5.760;2023-05-27T11:11:11;23.20;53.70
69082;DHT22;69029;51.986;5.760;2023-05-27T11:13:41;23.50;53.70
69082;DHT22;69029;51.986;5.760;2023-05-27T11:16:10;23.90;54.90
69082;DHT22;69029;51.986;5.760;2023-05-27T11:18:47;24.20;56.40
69082;DHT22;69029;51.986;5.760;2023-05-27T11:21:14;24.40;56.00
69082;DHT22;69029;51.986;5.760;2023-05-27T11:23:45;24.90;57.10
69082;DHT22;69029;51.986;5.760;2023-05-27T11:26:12;25.20;56.30
69082;DHT22;69029;51.986;5.760;2023-05-27T11:28:48;25.40;57.20
69082;DHT22;69029;51.986;5.760;2023-05-27T11:31:14;25.70;57.30
69082;DHT22;69029;51.986;5.760;2023-05-27T11:33:41;26.20;58.40
69082;DHT22;69029;51.986;5.760;2023-05-27T11:36:11;26.50;57.30
69082;DHT22;69029;51.986;5.760;2023-05-27T11:38:53;26.90;58.80
69082;DHT22;69029;51.986;5.760;2023-05-27T11:41:21;27.30;59.60
69082;DHT22;69029;51.986;5.760;2023-05-27T11:43:55;27.60;58.10
69082;DHT22;69029;51.986;5.760;2023-05-27T11:46:21;27.90;56.00
69082;DHT22;69029;51.986;5.760;2023-05-27T11:48:48;28.30;57.30
69082;DHT22;69029;51.986;5.760;2023-05-27T11:51:14;28.60;56.40
69082;DHT22;69029;51.986;5.760;2023-05-27T11:53:49;29.00;57.30
69082;DHT22;69029;51.986;5.760;2023-05-27T11:56:17;29.50;50.70
69082;DHT22;69029;51.986;5.760;2023-05-27T11:58:43;29.90;51.30
69082;DHT22;69029;51.986;5.760;2023-05-27T12:01:08;30.10;49.30
69082;DHT22;69029;51.986;5.760;2023-05-27T12:03:34;30.20;47.40
69082;DHT22;69029;51.986;5.760;2023-05-27T12:06:00;30.50;51.60
69082;DHT22;69029;51.986;5.760;2023-05-27T12:08:26;31.00;50.20
69082;DHT22;69029;51.986;5.760;2023-05-27T12:10:52;31.50;49.10
69082;DHT22;69029;51.986;5.760;2023-05-27T12:13:20;32.00;50.90
69082;DHT22;69029;51.986;5.760;2023-05-27T12:15:49;32.40;49.40
69082;DHT22;69029;51.986;5.760;2023-05-27T12:18:16;32.80;48.50
69082;DHT22;69029;51.986;5.760;2023-05-27T12:20:42;33.00;47.70
69082;DHT22;69029;51.986;5.760;2023-05-27T12:23:08;33.30;47.00
69082;DHT22;69029;51.986;5.760;2023-05-27T12:25:34;33.80;46.90
69082;DHT22;69029;51.986;5.760;2023-05-27T12:27:59;34.10;45.20
69082;DHT22;69029;51.986;5.760;2023-05-27T12:30:25;34.50;45.70
69082;DHT22;69029;51.986;5.760;2023-05-27T12:32:50;34.90;43.50
69082;DHT22;69029;51.986;5.760;2023-05-27T12:35:16;35.20;41.50
69082;DHT22;69029;51.986;5.760;2023-05-27T12:37:41;35.40;45.20
69082;DHT22;69029;51.986;5.760;2023-05-27T12:40:08;36.10;42.30
69082;DHT22;69029;51.986;5.760;2023-05-27T12:42:38;36.50;43.90
69082;DHT22;69029;51.986;5.760;2023-05-27T12:45:04;36.80;39.40
69082;DHT22;69029;51.986;5.760;2023-05-27T12:47:29;37.10;40.00
69082;DHT22;69029;51.986;5.760;2023-05-27T12:49:55;37.20;38.30
69082;DHT22;69029;51.986;5.760;2023-05-27T12:52:21;37.30;36.00
69082;DHT22;69029;51.986;5.760;2023-05-27T12:54:46;37.70;33.70
69082;DHT22;69029;51.986;5.760;2023-05-27T12:57:12;37.70;37.00
69082;DHT22;69029;51.986;5.760;2023-05-27T12:59:38;38.20;36.50
69082;DHT22;69029;51.986;5.760;2023-05-27T13:02:03;38.40;35.50
69082;DHT22;69029;51.986;5.760;2023-05-27T13:04:30;38.40;36.30
69082;DHT22;69029;51.986;5.760;2023-05-27T13:06:56;38.70;35.30
69082;DHT22;69029;51.986;5.760;2023-05-27T13:09:21;39.00;34.90
69082;DHT22;69029;51.986;5.760;2023-05-27T13:11:47;39.30;33.80
69082;DHT22;69029;51.986;5.760;2023-05-27T13:14:13;39.20;31.20
69082;DHT22;69029;51.986;5.760;2023-05-27T13:16:38;39.50;32.60
69082;DHT22;69029;51.986;5.760;2023-05-27T13:19:04;39.60;31.40
69082;DHT22;69029;51.986;5.760;2023-05-27T13:21:29;39.70;32.30
69082;DHT22;69029;51.986;5.760;2023-05-27T13:23:55;40.10;30.90
69082;DHT22;69029;51.986;5.760;2023-05-27T13:26:20;40.20;32.50
69082;DHT22;69029;51.986;5.760;2023-05-27T13:28:48;40.20;30.60
69082;DHT22;69029;51.986;5.760;2023-05-27T13:31:13;40.50;32.20
69082;DHT22;69029;51.986;5.760;2023-05-27T13:33:43;40.80;29.40
69082;DHT22;69029;51.986;5.760;2023-05-27T13:36:09;40.60;29.40
69082;DHT22;69029;51.986;5.760;2023-05-27T13:38:34;40.80;31.30
69082;DHT22;69029;51.986;5.760;2023-05-27T13:41:00;41.10;30.60
69082;DHT22;69029;51.986;5.760;2023-05-27T13:43:26;40.90;27.10
69082;DHT22;69029;51.986;5.760;2023-05-27T13:45:51;41.30;30.70
69082;DHT22;69029;51.986;5.760;2023-05-27T13:48:17;41.30;28.60
69082;DHT22;69029;51.986;5.760;2023-05-27T13:50:43;41.30;29.50
69082;DHT22;69029;51.986;5.760;2023-05-27T13:53:08;41.10;28.90
69082;DHT22;69029;51.986;5.760;2023-05-27T13:55:34;40.90;29.30
69082;DHT22;69029;51.986;5.760;2023-05-27T13:57:59;41.00;26.90
69082;DHT22;69029;51.986;5.760;2023-05-27T14:00:25;41.10;29.00
69082;DHT22;69029;51.986;5.760;2023-05-27T14:02:51;41.60;28.90
69082;DHT22;69029;51.986;5.760;2023-05-27T14:05:17;42.20;28.90
69082;DHT22;69029;51.986;5.760;2023-05-27T14:07:43;41.90;25.20
69082;DHT22;69029;51.986;5.760;2023-05-27T14:10:11;42.00;27.90
69082;DHT22;69029;51.986;5.760;2023-05-27T14:12:37;42.20;27.90
69082;DHT22;69029;51.986;5.760;2023-05-27T14:15:03;42.40;27.30
69082;DHT22;69029;51.986;5.760;2023-05-27T14:17:29;42.30;27.40
69082;DHT22;69029;51.986;5.760;2023-05-27T14:19:55;42.20;25.40
69082;DHT22;69029;51.986;5.760;2023-05-27T14:22:21;42.30;27.10
69082;DHT22;69029;51.986;5.760;2023-05-27T14:24:47;42.40;27.20
69082;DHT22;69029;51.986;5.760;2023-05-27T14:27:13;42.40;26.40
69082;DHT22;69029;51.986;5.760;2023-05-27T14:29:39;42.50;26.40
69082;DHT22;69029;51.986;5.760;2023-05-27T14:32:06;42.90;25.60
69082;DHT22;69029;51.986;5.760;2023-05-27T14:34:31;43.30;26.50
69082;DHT22;69029;51.986;5.760;2023-05-27T14:36:57;42.70;26.00
69082;DHT22;69029;51.986;5.760;2023-05-27T14:39:22;42.70;26.30
69082;DHT22;69029;51.986;5.760;2023-05-27T14:41:48;43.00;26.10
69082;DHT22;69029;51.986;5.760;2023-05-27T14:44:14;42.70;25.70
69082;DHT22;69029;51.986;5.760;2023-05-27T14:46:39;42.80;26.40
69082;DHT22;69029;51.986;5.760;2023-05-27T14:49:05;42.90;24.30
69082;DHT22;69029;51.986;5.760;2023-05-27T14:51:31;43.00;24.20
69082;DHT22;69029;51.986;5.760;2023-05-27T14:53:56;42.60;24.10
69082;DHT22;69029;51.986;5.760;2023-05-27T14:56:22;43.10;25.60
69082;DHT22;69029;51.986;5.760;2023-05-27T14:58:48;43.20;25.20
69082;DHT22;69029;51.986;5.760;2023-05-27T15:01:14;42.90;24.20
69082;DHT22;69029;51.986;5.760;2023-05-27T15:03:40;43.30;24.50
69082;DHT22;69029;51.986;5.760;2023-05-27T15:06:06;43.30;24.70
69082;DHT22;69029;51.986;5.760;2023-05-27T15:08:34;43.50;24.40
69082;DHT22;69029;51.986;5.760;2023-05-27T15:11:00;43.80;24.10
69082;DHT22;69029;51.986;5.760;2023-05-27T15:13:25;43.20;24.00
69082;DHT22;69029;51.986;5.760;2023-05-27T15:15:51;43.20;23.90
69082;DHT22;69029;51.986;5.760;2023-05-27T15:18:17;43.00;23.80
69082;DHT22;69029;51.986;5.760;2023-05-27T15:20:42;42.50;23.70
69082;DHT22;69029;51.986;5.760;2023-05-27T15:23:08;42.70;23.70
69082;DHT22;69029;51.986;5.760;2023-05-27T15:25:35;42.90;23.90
69082;DHT22;69029;51.986;5.760;2023-05-27T15:28:01;43.10;24.00
69082;DHT22;69029;51.986;5.760;2023-05-27T15:30:26;43.10;23.60
69082;DHT22;69029;51.986;5.760;2023-05-27T15:32:52;43.20;23.50
69082;DHT22;69029;51.986;5.760;2023-05-27T15:35:18;43.20;22.70
69082;DHT22;69029;51.986;5.760;2023-05-27T15:37:43;42.60;23.40
69082;DHT22;69029;51.986;5.760;2023-05-27T15:40:09;42.90;23.70
69082;DHT22;69029;51.986;5.760;2023-05-27T15:42:36;43.00;24.30
69082;DHT22;69029;51.986;5.760;2023-05-27T15:45:02;43.10;23.50